Old Wolverton, United Kingdom
Current Conditions -  °F | °C
As of 8:20 AM on Friday 28 Nov 2014 (Local Time) from EGTC Reporting Station
Haze Haze  
Wind Chill: 50°   Ceiling: 400
Heat Index: 50°   Visibility: 1.2mi
Dew Point: 50°   Wind: 12mph
Humidity: 100%   Direction: 80°E
Pressure: 29.59"   Gusts: NA
Location:  52.06°N, 0.81°W
Report Text: EGTC 280820Z 08010KT 2000 BR BKN004 10/10 Q1002
Loading
Personal Weather Stations






























Interactive Weather Map New forecast layout! Learn more

10-Day Weather Forecast

Advertisements
Track Severe Weather on mobile